createdAt,value
2023-01-02T00:00:34.724Z,9.37
2023-01-02T00:03:01.700Z,9.40
2023-01-02T00:05:30.079Z,9.40
2023-01-02T00:07:56.736Z,9.32
2023-01-02T00:10:23.723Z,9.30
2023-01-02T00:12:50.602Z,9.40
2023-01-02T00:15:17.715Z,9.43
2023-01-02T00:17:44.394Z,9.34
2023-01-02T00:20:11.316Z,9.41
2023-01-02T00:22:37.949Z,9.35
2023-01-02T00:25:07.170Z,9.35
2023-01-02T00:27:34.040Z,9.29
2023-01-02T00:30:00.659Z,9.38
2023-01-02T00:32:27.346Z,9.32
2023-01-02T00:34:53.952Z,9.37
2023-01-02T00:37:20.567Z,9.27
2023-01-02T00:39:47.228Z,9.25
2023-01-02T00:42:13.837Z,9.25
2023-01-02T00:44:40.570Z,9.24
2023-01-02T00:47:07.283Z,9.23
2023-01-02T00:49:34.222Z,9.23
2023-01-02T00:52:01.343Z,9.26
2023-01-02T00:54:28.013Z,9.24
2023-01-02T00:56:54.663Z,9.25
2023-01-02T00:59:21.241Z,9.21
2023-01-02T01:01:47.983Z,9.24
2023-01-02T01:04:15.162Z,9.40
2023-01-02T01:06:41.910Z,9.26
2023-01-02T01:09:08.783Z,9.35
2023-01-02T01:11:35.491Z,9.34
2023-01-02T01:14:02.100Z,9.28
2023-01-02T01:16:28.777Z,9.21
2023-01-02T01:18:56.648Z,9.19
2023-01-02T01:21:23.447Z,9.18
2023-01-02T01:23:51.401Z,9.29
2023-01-02T01:26:21.057Z,9.38
2023-01-02T01:28:47.760Z,9.24
2023-01-02T01:31:18.937Z,9.17
2023-01-02T01:33:46.018Z,9.23
2023-01-02T01:36:19.403Z,9.18
2023-01-02T01:38:46.574Z,9.17
2023-01-02T01:41:15.444Z,9.12
2023-01-02T01:43:44.741Z,9.10
2023-01-02T01:46:26.925Z,9.17
2023-01-02T01:48:59.052Z,9.31
2023-01-02T01:51:27.693Z,9.19
2023-01-02T01:54:00.349Z,9.13
2023-01-02T01:56:29.029Z,9.19
2023-01-02T01:58:55.834Z,9.14
2023-01-02T02:01:22.666Z,9.18
2023-01-02T02:03:50.701Z,9.15
2023-01-02T02:06:18.221Z,9.18
2023-01-02T02:09:17.980Z,9.08
2023-01-02T02:11:44.932Z,9.08
2023-01-02T02:14:11.544Z,9.09
2023-01-02T02:16:57.766Z,9.11
2023-01-02T02:19:35.051Z,9.12
2023-01-02T02:22:29.676Z,9.14
2023-01-02T02:25:27.455Z,9.16
2023-01-02T02:28:32.564Z,9.24
2023-01-02T02:31:43.670Z,9.22
2023-01-02T02:34:23.841Z,9.20
2023-01-02T02:36:58.144Z,9.25
2023-01-02T02:39:33.803Z,9.37
2023-01-02T02:42:42.809Z,9.26
2023-01-02T02:45:24.760Z,9.40
2023-01-02T02:48:02.594Z,9.44
2023-01-02T02:50:35.492Z,9.36
2023-01-02T02:53:10.927Z,9.43
2023-01-02T02:55:45.465Z,9.41
2023-01-02T02:58:13.694Z,9.43
2023-01-02T03:00:40.283Z,9.43
2023-01-02T03:03:22.223Z,9.42
2023-01-02T03:06:09.478Z,9.56
2023-01-02T03:08:51.375Z,9.62
2023-01-02T03:11:18.032Z,9.49
2023-01-02T03:14:14.131Z,9.47
2023-01-02T03:16:42.535Z,9.45
2023-01-02T03:19:12.005Z,9.43
2023-01-02T03:21:46.358Z,9.59
2023-01-02T03:24:15.696Z,9.58
2023-01-02T03:26:48.145Z,9.55
2023-01-02T03:29:23.379Z,9.58
2023-01-02T03:31:51.925Z,9.60
2023-01-02T03:34:21.666Z,9.54
2023-01-02T03:36:50.598Z,9.55
2023-01-02T03:39:20.335Z,9.57
2023-01-02T03:41:53.568Z,9.56
2023-01-02T03:44:23.196Z,9.54
2023-01-02T03:47:27.574Z,9.64
2023-01-02T03:49:57.695Z,9.65
2023-01-02T03:52:26.242Z,9.69
2023-01-02T03:54:54.074Z,9.65
2023-01-02T03:57:28.710Z,9.69
2023-01-02T04:00:08.843Z,9.72
2023-01-02T04:03:03.757Z,9.78
2023-01-02T04:05:41.326Z,9.76
2023-01-02T04:08:13.837Z,9.81
2023-01-02T04:10:43.859Z,9.81
2023-01-02T04:13:20.876Z,9.86
2023-01-02T04:15:48.566Z,9.79
2023-01-02T04:18:21.190Z,9.75
2023-01-02T04:20:51.122Z,9.87
2023-01-02T04:23:25.101Z,9.84
2023-01-02T04:26:05.956Z,9.88
2023-01-02T04:28:33.654Z,9.86
2023-01-02T04:31:06.227Z,9.86
2023-01-02T04:33:36.832Z,9.90
2023-01-02T04:36:11.420Z,9.90
2023-01-02T04:38:38.669Z,9.88
2023-01-02T04:41:06.314Z,9.89
2023-01-02T04:43:32.957Z,9.96
2023-01-02T04:45:59.829Z,9.97
2023-01-02T04:48:26.448Z,10.00
2023-01-02T04:50:56.199Z,10.06
2023-01-02T04:53:22.843Z,10.10
2023-01-02T04:55:55.492Z,10.08
2023-01-02T04:58:22.180Z,10.19
2023-01-02T05:00:48.832Z,10.23
2023-01-02T05:03:15.891Z,10.19
2023-01-02T05:05:42.515Z,10.25
2023-01-02T05:08:15.611Z,10.25
2023-01-02T05:10:42.905Z,10.43
2023-01-02T05:13:09.516Z,10.35
2023-01-02T05:15:36.442Z,10.38
2023-01-02T05:18:03.269Z,10.50
2023-01-02T05:20:31.964Z,10.47
2023-01-02T05:23:17.297Z,10.43
2023-01-02T05:25:43.981Z,10.51
2023-01-02T05:28:16.062Z,10.54
2023-01-02T05:30:42.699Z,10.57
2023-01-02T05:33:09.344Z,10.59
2023-01-02T05:35:35.967Z,10.68
2023-01-02T05:38:02.717Z,10.82
2023-01-02T05:40:29.326Z,10.77
2023-01-02T05:42:55.995Z,10.71
2023-01-02T05:45:22.637Z,10.78
2023-01-02T05:47:49.269Z,10.80
2023-01-02T05:50:16.085Z,10.84
2023-01-02T05:52:45.844Z,10.95
2023-01-02T05:55:15.883Z,10.97
2023-01-02T05:57:42.619Z,10.96
2023-01-02T06:00:09.743Z,11.05
2023-01-02T06:02:36.457Z,11.13
2023-01-02T06:05:03.175Z,11.20
2023-01-02T06:07:29.827Z,11.18
2023-01-02T06:09:56.496Z,11.22
2023-01-02T06:12:23.094Z,11.15
2023-01-02T06:14:49.724Z,11.14
2023-01-02T06:17:16.454Z,11.21
2023-01-02T06:19:45.140Z,11.29
2023-01-02T06:22:15.422Z,11.32
2023-01-02T06:24:42.049Z,11.40
2023-01-02T06:27:08.661Z,11.34
2023-01-02T06:29:35.253Z,11.49
2023-01-02T06:32:01.950Z,11.38
2023-01-02T06:34:28.584Z,11.45
2023-01-02T06:36:55.670Z,11.48
2023-01-02T06:39:22.334Z,11.42
2023-01-02T06:41:48.920Z,11.47
2023-01-02T06:44:15.556Z,11.41
2023-01-02T06:46:42.175Z,11.59
2023-01-02T06:49:08.850Z,11.47
2023-01-02T06:51:35.457Z,11.67
2023-01-02T06:54:02.713Z,11.64
2023-01-02T06:56:29.346Z,11.75
2023-01-02T06:58:55.971Z,11.74
2023-01-02T07:01:23.639Z,11.62
2023-01-02T07:03:50.482Z,11.60
2023-01-02T07:06:19.485Z,11.69
2023-01-02T07:08:46.432Z,11.68
2023-01-02T07:11:21.255Z,11.86
2023-01-02T07:13:49.962Z,11.85
2023-01-02T07:16:20.403Z,11.81
2023-01-02T07:18:47.453Z,11.76
2023-01-02T07:21:15.248Z,11.82
2023-01-02T07:23:42.653Z,11.73
2023-01-02T07:26:10.126Z,11.78
2023-01-02T07:28:37.302Z,11.89
2023-01-02T07:31:11.015Z,11.88
2023-01-02T07:33:40.093Z,11.78
2023-01-02T07:36:10.195Z,11.78
2023-01-02T07:38:38.266Z,11.87
2023-01-02T07:41:15.595Z,11.97
2023-01-02T07:43:43.646Z,11.93
2023-01-02T07:46:13.042Z,11.86
2023-01-02T07:48:39.745Z,11.93
2023-01-02T07:51:07.442Z,11.98
2023-01-02T07:53:34.911Z,12.03
2023-01-02T07:56:02.331Z,12.02
2023-01-02T07:58:29.387Z,12.10
2023-01-02T08:01:01.473Z,12.21
2023-01-02T08:03:34.467Z,12.08
2023-01-02T08:06:06.229Z,12.09
2023-01-02T08:08:33.221Z,12.09
2023-01-02T08:11:04.467Z,12.09
2023-01-02T08:13:31.116Z,12.32
2023-01-02T08:15:57.732Z,12.27
2023-01-02T08:18:24.357Z,12.19
2023-01-02T08:20:50.983Z,12.36
2023-01-02T08:23:17.693Z,12.36
2023-01-02T08:25:44.390Z,12.31
2023-01-02T08:28:11.049Z,12.36
2023-01-02T08:30:40.451Z,12.38
2023-01-02T08:33:07.148Z,12.37
2023-01-02T08:35:38.604Z,12.45
2023-01-02T08:38:05.934Z,12.58
2023-01-02T08:40:32.644Z,12.58
2023-01-02T08:42:59.264Z,12.45
2023-01-02T08:45:25.915Z,12.58
2023-01-02T08:47:52.707Z,12.56
2023-01-02T08:50:19.708Z,12.62
2023-01-02T08:52:46.410Z,12.64
2023-01-02T08:55:13.428Z,12.77
2023-01-02T08:57:40.196Z,12.73
2023-01-02T09:00:07.437Z,12.72
2023-01-02T09:02:34.181Z,12.78
2023-01-02T09:05:00.955Z,12.83
2023-01-02T09:07:27.699Z,12.80
2023-01-02T09:09:55.271Z,12.77
2023-01-02T09:12:22.084Z,12.88
2023-01-02T09:14:48.745Z,13.03
2023-01-02T09:17:18.244Z,13.04
2023-01-02T09:19:51.722Z,13.08
2023-01-02T09:22:24.412Z,13.05
2023-01-02T09:25:01.736Z,13.10
2023-01-02T09:27:34.186Z,13.13
2023-01-02T09:30:01.638Z,13.28
2023-01-02T09:32:28.769Z,13.25
2023-01-02T09:34:58.946Z,13.16
2023-01-02T09:37:29.347Z,13.34
2023-01-02T09:39:59.618Z,13.28
2023-01-02T09:42:29.754Z,13.25
2023-01-02T09:45:08.123Z,13.29
2023-01-02T09:47:40.512Z,13.28
2023-01-02T09:50:30.800Z,13.29
2023-01-02T09:53:01.194Z,13.38
2023-01-02T09:55:34.677Z,13.38
2023-01-02T09:58:12.173Z,13.40
2023-01-02T10:00:39.732Z,13.50
2023-01-02T10:04:03.827Z,13.65
2023-01-02T10:07:10.118Z,13.74
2023-01-02T10:09:45.633Z,13.70
2023-01-02T10:12:25.177Z,13.73
2023-01-02T10:15:09.561Z,13.78
2023-01-02T10:17:46.662Z,13.82
2023-01-02T10:20:27.851Z,13.83
2023-01-02T10:23:07.413Z,13.91
2023-01-02T10:25:44.674Z,13.92
2023-01-02T10:28:18.738Z,13.90
2023-01-02T10:31:06.800Z,13.85
2023-01-02T10:33:56.856Z,13.88
2023-01-02T10:36:33.976Z,13.95
2023-01-02T10:39:06.923Z,14.04
2023-01-02T10:41:36.954Z,14.09
2023-01-02T10:44:37.346Z,14.06
2023-01-02T10:47:37.577Z,14.18
2023-01-02T10:50:11.964Z,14.12
2023-01-02T10:53:20.657Z,14.15
2023-01-02T10:55:55.929Z,14.15
2023-01-02T10:58:28.970Z,14.16
2023-01-02T11:01:16.376Z,14.32
2023-01-02T11:03:58.303Z,14.42
2023-01-02T11:06:37.350Z,14.42
2023-01-02T11:09:29.719Z,14.48
2023-01-02T11:12:20.268Z,14.56
2023-01-02T11:14:51.146Z,14.61
2023-01-02T11:17:26.180Z,14.62
2023-01-02T11:20:02.241Z,14.61
2023-01-02T11:22:41.789Z,14.69
2023-01-02T11:25:26.423Z,14.59
2023-01-02T11:27:57.763Z,14.62
2023-01-02T11:30:43.189Z,14.50
2023-01-02T11:33:28.338Z,14.57
2023-01-02T11:35:57.975Z,14.63
2023-01-02T11:38:29.775Z,14.69
2023-01-02T11:41:00.952Z,14.71
2023-01-02T11:43:49.914Z,14.66
2023-01-02T11:46:27.567Z,14.75
2023-01-02T11:48:58.149Z,14.75
2023-01-02T11:51:25.166Z,14.72
2023-01-02T11:53:53.457Z,14.73
2023-01-02T11:56:25.996Z,14.82
2023-01-02T11:59:15.180Z,14.81
2023-01-02T12:01:51.899Z,14.83
2023-01-02T12:04:18.637Z,14.79
2023-01-02T12:07:00.464Z,14.76
2023-01-02T12:10:11.932Z,14.78
2023-01-02T12:13:01.844Z,14.86
2023-01-02T12:15:52.793Z,14.82
2023-01-02T12:18:31.598Z,14.77
2023-01-02T12:21:14.564Z,14.80
2023-01-02T12:24:19.426Z,14.81
2023-01-02T12:26:56.410Z,14.81
2023-01-02T12:29:48.873Z,14.76
2023-01-02T12:32:48.624Z,14.75
2023-01-02T12:35:30.525Z,14.75
2023-01-02T12:37:58.874Z,14.78
2023-01-02T12:40:32.939Z,14.71
2023-01-02T12:43:09.186Z,14.74
2023-01-02T12:45:53.487Z,14.66
2023-01-02T12:48:39.879Z,14.63
2023-01-02T12:51:17.771Z,14.66
2023-01-02T12:54:19.037Z,14.58
2023-01-02T12:57:08.894Z,14.57
2023-01-02T12:59:41.635Z,14.52
2023-01-02T13:02:48.803Z,14.54
2023-01-02T13:05:18.859Z,14.50
2023-01-02T13:07:58.942Z,14.45
2023-01-02T13:10:27.649Z,14.55
2023-01-02T13:12:56.419Z,14.48
2023-01-02T13:15:25.874Z,14.48
2023-01-02T13:18:00.286Z,14.48
2023-01-02T13:20:51.399Z,14.51
2023-01-02T13:23:36.419Z,14.38
2023-01-02T13:26:12.641Z,14.48
2023-01-02T13:28:54.527Z,14.43
2023-01-02T13:31:46.627Z,14.34
2023-01-02T13:34:29.264Z,14.34
2023-01-02T13:37:06.173Z,14.30
2023-01-02T13:39:41.975Z,14.29
2023-01-02T13:42:42.388Z,14.34
2023-01-02T13:45:12.051Z,14.32
2023-01-02T13:47:39.501Z,14.20
2023-01-02T13:50:18.014Z,14.24
2023-01-02T13:53:16.913Z,14.21
2023-01-02T13:55:43.531Z,14.20
2023-01-02T13:58:17.720Z,14.18
2023-01-02T14:00:54.730Z,14.26
2023-01-02T14:03:21.852Z,14.23
2023-01-02T14:05:58.434Z,14.17
2023-01-02T14:08:27.383Z,14.19
2023-01-02T14:11:05.751Z,14.11
2023-01-02T14:13:36.219Z,14.10
2023-01-02T14:16:30.121Z,14.10
2023-01-02T14:19:14.845Z,14.06
2023-01-02T14:21:48.388Z,14.03
2023-01-02T14:24:30.248Z,14.07
2023-01-02T14:27:03.091Z,14.04
2023-01-02T14:29:30.722Z,14.06
2023-01-02T14:32:00.434Z,14.01
2023-01-02T14:34:27.432Z,13.96
2023-01-02T14:36:55.926Z,13.95
2023-01-02T14:39:33.714Z,13.95
2023-01-02T14:42:29.275Z,13.97
2023-01-02T14:45:05.431Z,13.82
2023-01-02T14:47:52.360Z,13.84
2023-01-02T14:50:29.007Z,13.78
2023-01-02T14:53:01.886Z,13.61
2023-01-02T14:55:35.398Z,13.68
2023-01-02T14:58:14.801Z,13.71
2023-01-02T15:00:45.461Z,13.63
2023-01-02T15:03:31.574Z,13.56
2023-01-02T15:06:03.940Z,13.52
2023-01-02T15:08:43.030Z,13.45
2023-01-02T15:11:43.790Z,13.45
2023-01-02T15:14:19.016Z,13.39
2023-01-02T15:16:58.389Z,13.35
2023-01-02T15:19:30.888Z,13.26
2023-01-02T15:21:57.625Z,13.26
2023-01-02T15:24:30.355Z,13.20
2023-01-02T15:27:22.710Z,13.12
2023-01-02T15:29:53.751Z,13.08
2023-01-02T15:32:34.530Z,13.05
2023-01-02T15:35:24.459Z,12.99
2023-01-02T15:37:51.573Z,12.94
2023-01-02T15:40:27.163Z,12.90
2023-01-02T15:43:15.180Z,12.86
2023-01-02T15:45:45.809Z,12.81
2023-01-02T15:48:13.206Z,12.75
2023-01-02T15:50:40.715Z,12.67
2023-01-02T15:53:23.637Z,12.62
2023-01-02T15:55:50.550Z,12.61
2023-01-02T15:58:17.140Z,12.48
2023-01-02T16:00:48.147Z,12.50
2023-01-02T16:04:03.103Z,12.44
2023-01-02T16:06:29.346Z,12.36
2023-01-02T16:08:58.067Z,12.32
2023-01-02T16:11:25.258Z,12.27
2023-01-02T16:14:19.801Z,12.27
2023-01-02T16:16:53.671Z,12.25
2023-01-02T16:19:25.053Z,12.14
2023-01-02T16:21:53.508Z,12.12
2023-01-02T16:24:22.312Z,12.12
2023-01-02T16:26:49.429Z,12.10
2023-01-02T16:29:21.038Z,12.12
2023-01-02T16:31:59.353Z,12.07
2023-01-02T16:34:35.988Z,12.04
2023-01-02T16:37:16.025Z,12.00
2023-01-02T16:39:49.348Z,11.93
2023-01-02T16:42:36.778Z,11.83
2023-01-02T16:45:05.133Z,11.88
2023-01-02T16:47:36.393Z,11.87
2023-01-02T16:50:05.342Z,11.88
2023-01-02T16:52:32.054Z,11.81
2023-01-02T16:54:58.814Z,11.85
2023-01-02T16:57:25.466Z,11.83
2023-01-02T16:59:52.518Z,11.74
2023-01-02T17:02:19.183Z,11.63
2023-01-02T17:04:46.277Z,11.63
2023-01-02T17:07:17.149Z,11.68
2023-01-02T17:09:48.429Z,11.68
2023-01-02T17:12:15.076Z,11.67
2023-01-02T17:14:46.069Z,11.56
2023-01-02T17:17:15.747Z,11.60
2023-01-02T17:19:42.456Z,11.59
2023-01-02T17:22:09.107Z,11.56
2023-01-02T17:24:35.733Z,11.51
2023-01-02T17:27:02.853Z,11.48
2023-01-02T17:29:32.536Z,11.53
2023-01-02T17:31:59.752Z,11.50
2023-01-02T17:34:26.392Z,11.36
2023-01-02T17:36:53.145Z,11.43
2023-01-02T17:39:19.788Z,11.53
2023-01-02T17:41:46.462Z,11.52
2023-01-02T17:44:13.335Z,11.36
2023-01-02T17:49:26.721Z,11.39
2023-01-02T17:51:53.351Z,11.35
2023-01-02T17:54:19.960Z,11.18
2023-01-02T17:56:46.654Z,11.28
2023-01-02T17:59:14.070Z,11.16
2023-01-02T18:01:40.834Z,11.12
2023-01-02T18:04:07.564Z,11.03
2023-01-02T18:06:34.577Z,10.89
2023-01-02T18:09:01.228Z,10.89
2023-01-02T18:11:27.926Z,10.75
2023-01-02T18:13:55.648Z,10.76
2023-01-02T18:16:29.442Z,10.64
2023-01-02T18:18:56.111Z,10.59
2023-01-02T18:21:25.795Z,10.44
2023-01-02T18:23:55.166Z,10.40
2023-01-02T18:26:22.474Z,10.25
2023-01-02T18:28:51.166Z,10.25
2023-01-02T18:31:20.725Z,10.23
2023-01-02T18:33:47.841Z,10.15
2023-01-02T18:36:21.520Z,10.09
2023-01-02T18:38:50.656Z,10.01
2023-01-02T18:41:26.702Z,9.95
2023-01-02T18:44:00.561Z,10.01
2023-01-02T18:47:02.004Z,9.89
2023-01-02T18:49:26.318Z,9.89
2023-01-02T18:52:10.703Z,9.88
2023-01-02T18:54:41.327Z,9.76
2023-01-02T18:57:19.397Z,9.71
2023-01-02T18:59:47.163Z,9.79
2023-01-02T19:02:38.307Z,9.80
2023-01-02T19:05:19.214Z,9.79
2023-01-02T19:07:45.880Z,9.70
2023-01-02T19:10:37.062Z,9.88
2023-01-02T19:13:11.558Z,9.88
2023-01-02T19:15:44.072Z,9.81
2023-01-02T19:18:23.001Z,9.70
2023-01-02T19:20:54.840Z,9.78
2023-01-02T19:23:31.835Z,9.80
2023-01-02T19:26:17.521Z,9.79
2023-01-02T19:28:52.316Z,9.64
2023-01-02T19:31:18.998Z,9.73
2023-01-02T19:34:00.482Z,9.67
2023-01-02T19:36:36.657Z,9.70
2023-01-02T19:39:24.443Z,9.68
2023-01-02T19:42:09.751Z,9.63
2023-01-02T19:44:36.435Z,9.60
2023-01-02T19:47:03.435Z,9.58
2023-01-02T19:49:30.235Z,9.65
2023-01-02T19:51:56.906Z,9.62
2023-01-02T19:54:23.748Z,9.56
2023-01-02T19:56:50.482Z,9.67
2023-01-02T19:59:17.222Z,9.53
2023-01-02T20:01:43.993Z,9.56
2023-01-02T20:04:10.878Z,9.54
2023-01-02T20:06:37.636Z,9.62
2023-01-02T20:09:04.715Z,9.55
2023-01-02T20:11:51.697Z,9.56
2023-01-02T20:14:18.286Z,9.63
2023-01-02T20:16:44.895Z,9.52
2023-01-02T20:19:11.708Z,9.47
2023-01-02T20:21:38.331Z,9.57
2023-01-02T20:24:06.300Z,9.60
2023-01-02T20:26:32.907Z,9.37
2023-01-02T20:28:59.541Z,9.36
2023-01-02T20:31:26.596Z,9.40
2023-01-02T20:33:54.102Z,9.46
2023-01-02T20:36:20.741Z,9.37
2023-01-02T20:38:47.832Z,9.47
2023-01-02T20:41:14.793Z,9.34
2023-01-02T20:43:41.608Z,9.39
2023-01-02T20:46:08.287Z,9.37
2023-01-02T20:48:37.296Z,9.40
2023-01-02T20:51:03.964Z,9.40
2023-01-02T20:53:30.573Z,9.34
2023-01-02T20:55:57.204Z,9.32
2023-01-02T20:58:24.064Z,9.26
2023-01-02T21:00:50.754Z,9.41
2023-01-02T21:03:17.551Z,9.27
2023-01-02T21:05:44.476Z,9.23
2023-01-02T21:08:11.199Z,9.15
2023-01-02T21:10:37.998Z,9.09
2023-01-02T21:13:07.700Z,9.10
2023-01-02T21:15:51.914Z,9.21
2023-01-02T21:18:19.732Z,9.14
2023-01-02T21:20:49.715Z,9.21
2023-01-02T21:23:17.750Z,9.11
2023-01-02T21:25:44.621Z,9.14
2023-01-02T21:28:12.450Z,9.06
2023-01-02T21:30:40.461Z,9.21
2023-01-02T21:33:07.862Z,9.15
2023-01-02T21:35:36.511Z,9.08
2023-01-02T21:38:03.297Z,9.01
2023-01-02T21:40:29.893Z,8.92
2023-01-02T21:42:56.710Z,8.92
2023-01-02T21:45:23.389Z,8.95
2023-01-02T21:47:50.184Z,8.88
2023-01-02T21:50:17.216Z,8.81
2023-01-02T21:52:44.200Z,8.98
2023-01-02T21:55:11.279Z,8.97
2023-01-02T21:58:11.581Z,8.99
2023-01-02T22:00:26.095Z,8.78
2023-01-02T22:02:53.714Z,8.70
2023-01-02T22:05:20.951Z,8.88
2023-01-02T22:07:50.051Z,8.88
2023-01-02T22:10:16.829Z,8.94
2023-01-02T22:12:44.108Z,8.93
2023-01-02T22:15:12.097Z,8.89
2023-01-02T22:17:38.818Z,8.86
2023-01-02T22:20:06.132Z,8.80
2023-01-02T22:22:35.563Z,8.82
2023-01-02T22:25:02.223Z,8.84
2023-01-02T22:27:29.253Z,8.78
2023-01-02T22:32:47.106Z,8.83
2023-01-02T22:35:13.747Z,8.86
2023-01-02T22:37:40.528Z,8.74
2023-01-02T22:40:07.712Z,8.66
2023-01-02T22:43:10.480Z,8.62
2023-01-02T22:45:44.576Z,8.52
2023-01-02T22:48:20.884Z,8.56
2023-01-02T22:50:48.951Z,8.67
2023-01-02T22:53:21.480Z,8.72
2023-01-02T22:55:51.739Z,8.59
2023-01-02T22:58:19.011Z,8.64
2023-01-02T23:00:47.643Z,8.71
2023-01-02T23:03:15.744Z,8.68
2023-01-02T23:05:43.135Z,8.76
2023-01-02T23:08:10.202Z,8.72
2023-01-02T23:10:39.835Z,8.76
2023-01-02T23:13:07.003Z,8.78
2023-01-02T23:15:33.658Z,8.68
2023-01-02T23:18:19.016Z,8.74
2023-01-02T23:20:49.212Z,8.73
2023-01-02T23:23:15.921Z,8.76
2023-01-02T23:25:43.562Z,8.66
2023-01-02T23:28:20.509Z,8.67
2023-01-02T23:30:57.259Z,8.64
2023-01-02T23:33:23.895Z,8.79
2023-01-02T23:35:53.614Z,8.68
2023-01-02T23:38:20.397Z,8.69
2023-01-02T23:40:46.969Z,8.69
2023-01-02T23:43:13.695Z,8.75
2023-01-02T23:45:40.708Z,8.78
2023-01-02T23:48:07.371Z,8.60
2023-01-02T23:50:34.022Z,8.62
2023-01-02T23:53:00.654Z,8.66
2023-01-02T23:55:27.345Z,8.66
2023-01-02T23:57:54.030Z,8.71
